createdAt,value
2023-02-04T00:00:39.067Z,0.80
2023-02-04T00:03:11.892Z,0.76
2023-02-04T00:05:45.380Z,0.75
2023-02-04T00:08:18.002Z,0.79
2023-02-04T00:10:51.694Z,0.82
2023-02-04T00:13:24.518Z,0.85
2023-02-04T00:15:58.201Z,0.85
2023-02-04T00:18:31.799Z,0.79
2023-02-04T00:21:04.665Z,0.79
2023-02-04T00:23:37.764Z,0.72
2023-02-04T00:26:12.224Z,0.68
2023-02-04T00:28:45.526Z,0.62
2023-02-04T00:31:20.253Z,0.62
2023-02-04T00:33:53.512Z,0.65
2023-02-04T00:36:26.253Z,0.70
2023-02-04T00:38:59.147Z,0.71
2023-02-04T00:41:32.066Z,0.75
2023-02-04T00:44:05.551Z,0.76
2023-02-04T00:46:38.497Z,0.76
2023-02-04T00:49:12.442Z,0.77
2023-02-04T00:51:47.895Z,0.82
2023-02-04T00:54:20.956Z,0.87
2023-02-04T00:56:53.807Z,0.89
2023-02-04T00:59:27.743Z,0.92
2023-02-04T01:02:00.823Z,0.95
2023-02-04T01:04:34.603Z,0.98
2023-02-04T01:07:08.868Z,0.99
2023-02-04T01:09:41.330Z,0.97
2023-02-04T01:12:14.091Z,0.90
2023-02-04T01:14:47.525Z,0.84
2023-02-04T01:17:21.458Z,0.78
2023-02-04T01:19:55.293Z,0.75
2023-02-04T01:22:29.406Z,0.76
2023-02-04T01:25:02.231Z,0.75
2023-02-04T01:27:47.670Z,0.75
2023-02-04T01:30:21.133Z,0.72
2023-02-04T01:32:54.363Z,0.71
2023-02-04T01:35:27.540Z,0.69
2023-02-04T01:38:00.598Z,0.68
2023-02-04T01:40:35.025Z,0.64
2023-02-04T01:43:08.668Z,0.65
2023-02-04T01:45:41.585Z,0.71
2023-02-04T01:48:16.212Z,0.76
2023-02-04T01:50:54.363Z,0.78
2023-02-04T01:53:28.537Z,0.77
2023-02-04T01:56:02.013Z,0.76
2023-02-04T01:58:35.902Z,0.75
2023-02-04T02:01:15.109Z,0.76
2023-02-04T02:03:47.799Z,0.74
2023-02-04T02:06:21.194Z,0.70
2023-02-04T02:08:54.777Z,0.65
2023-02-04T02:11:28.733Z,0.61
2023-02-04T02:14:02.741Z,0.61
2023-02-04T02:16:35.947Z,0.59
2023-02-04T02:19:11.717Z,0.56
2023-02-04T02:21:49.199Z,0.55
2023-02-04T02:24:34.362Z,0.54
2023-02-04T02:27:10.648Z,0.60
2023-02-04T02:29:44.588Z,0.66
2023-02-04T02:32:16.945Z,0.73
2023-02-04T02:34:50.843Z,0.77
2023-02-04T02:37:23.688Z,0.79
2023-02-04T02:39:56.577Z,0.81
2023-02-04T02:42:29.555Z,0.83
2023-02-04T02:45:07.077Z,0.84
2023-02-04T02:47:40.056Z,0.84
2023-02-04T02:50:16.731Z,0.84
2023-02-04T02:52:49.645Z,0.81
2023-02-04T02:55:25.766Z,0.77
2023-02-04T02:57:59.221Z,0.74
2023-02-04T03:00:32.867Z,0.74
2023-02-04T03:03:22.496Z,0.78
2023-02-04T03:05:59.483Z,0.81
2023-02-04T03:08:33.198Z,0.84
2023-02-04T03:11:06.615Z,0.85
2023-02-04T03:13:39.800Z,0.83
2023-02-04T03:16:12.758Z,0.83
2023-02-04T03:18:45.708Z,0.80
2023-02-04T03:21:18.827Z,0.76
2023-02-04T03:23:52.080Z,0.73
2023-02-04T03:26:26.760Z,0.75
2023-02-04T03:29:00.650Z,0.79
2023-02-04T03:31:34.238Z,0.82
2023-02-04T03:34:07.564Z,0.79
2023-02-04T03:36:40.660Z,0.79
2023-02-04T03:39:14.039Z,0.77
2023-02-04T03:41:47.439Z,0.78
2023-02-04T03:44:22.123Z,0.79
2023-02-04T03:46:56.761Z,0.77
2023-02-04T03:49:29.642Z,0.80
2023-02-04T03:52:02.825Z,0.84
2023-02-04T03:54:35.985Z,0.83
2023-02-04T03:57:08.844Z,0.82
2023-02-04T03:59:42.033Z,0.79
2023-02-04T04:02:14.743Z,0.77
2023-02-04T04:04:47.716Z,0.77
2023-02-04T04:07:20.438Z,0.76
2023-02-04T04:09:53.666Z,0.79
2023-02-04T04:12:26.823Z,0.80
2023-02-04T04:15:00.405Z,0.78
2023-02-04T04:17:33.590Z,0.77
2023-02-04T04:20:08.174Z,0.77
2023-02-04T04:22:41.211Z,0.78
2023-02-04T04:25:13.964Z,0.79
2023-02-04T04:27:46.954Z,0.77
2023-02-04T04:30:20.777Z,0.72
2023-02-04T04:32:53.560Z,0.72
2023-02-04T04:35:27.052Z,0.74
2023-02-04T04:37:59.885Z,0.73
2023-02-04T04:40:33.476Z,0.75
2023-02-04T04:43:06.657Z,0.78
2023-02-04T04:45:39.982Z,0.78
2023-02-04T04:48:12.892Z,0.77
2023-02-04T04:50:46.258Z,0.75
2023-02-04T04:53:19.498Z,0.74
2023-02-04T04:55:52.240Z,0.71
2023-02-04T04:58:25.399Z,0.68
2023-02-04T05:00:58.671Z,0.65
2023-02-04T05:03:31.631Z,0.63
2023-02-04T05:06:04.913Z,0.61
2023-02-04T05:08:38.160Z,0.61
2023-02-04T05:11:11.678Z,0.59
2023-02-04T05:13:44.586Z,0.61
2023-02-04T05:16:18.544Z,0.59
2023-02-04T05:18:51.448Z,0.57
2023-02-04T05:21:24.431Z,0.56
2023-02-04T05:23:57.280Z,0.59
2023-02-04T05:26:31.339Z,0.62
2023-02-04T05:29:04.775Z,0.68
2023-02-04T05:31:38.005Z,0.71
2023-02-04T05:34:10.818Z,0.71
2023-02-04T05:36:44.252Z,0.70
2023-02-04T05:39:17.295Z,0.72
2023-02-04T05:41:50.271Z,0.73
2023-02-04T05:44:23.261Z,0.73
2023-02-04T05:46:56.235Z,0.66
2023-02-04T05:49:29.284Z,0.59
2023-02-04T05:52:02.208Z,0.58
2023-02-04T05:54:35.420Z,0.59
2023-02-04T05:57:08.617Z,0.61
2023-02-04T05:59:41.899Z,0.63
2023-02-04T06:02:16.456Z,0.65
2023-02-04T06:04:49.559Z,0.68
2023-02-04T06:07:22.502Z,0.68
2023-02-04T06:09:55.581Z,0.68
2023-02-04T06:12:28.464Z,0.66
2023-02-04T06:15:01.562Z,0.66
2023-02-04T06:17:34.800Z,0.64
2023-02-04T06:20:08.941Z,0.66
2023-02-04T06:22:42.260Z,0.70
2023-02-04T06:25:15.578Z,0.75
2023-02-04T06:27:49.386Z,0.79
2023-02-04T06:30:22.407Z,0.83
2023-02-04T06:32:55.603Z,0.85
2023-02-04T06:35:28.514Z,0.83
2023-02-04T06:38:01.878Z,0.86
2023-02-04T06:40:34.985Z,0.81
2023-02-04T06:43:08.043Z,0.78
2023-02-04T06:45:41.476Z,0.74
2023-02-04T06:48:14.653Z,0.76
2023-02-04T06:50:47.960Z,0.76
2023-02-04T06:53:21.040Z,0.77
2023-02-04T06:55:53.820Z,0.82
2023-02-04T06:58:26.824Z,0.86
2023-02-04T07:00:59.749Z,0.80
2023-02-04T07:03:32.615Z,0.79
2023-02-04T07:06:05.849Z,0.80
2023-02-04T07:08:38.419Z,0.82
2023-02-04T07:11:12.588Z,0.82
2023-02-04T07:13:45.626Z,0.86
2023-02-04T07:16:18.779Z,0.88
2023-02-04T07:18:51.787Z,0.93
2023-02-04T07:21:24.714Z,0.97
2023-02-04T07:23:57.558Z,0.99
2023-02-04T07:26:32.169Z,1.02
2023-02-04T07:29:07.121Z,1.08
2023-02-04T07:31:39.894Z,1.14
2023-02-04T07:34:16.160Z,1.18
2023-02-04T07:36:49.022Z,1.24
2023-02-04T07:39:22.409Z,1.29
2023-02-04T07:41:55.687Z,1.36
2023-02-04T07:44:30.105Z,1.42
2023-02-04T07:47:02.898Z,1.41
2023-02-04T07:49:35.685Z,1.43
2023-02-04T07:52:09.881Z,1.46
2023-02-04T07:54:43.187Z,1.49
2023-02-04T07:57:15.894Z,1.53
2023-02-04T07:59:49.195Z,1.56
2023-02-04T08:02:22.237Z,1.56
2023-02-04T08:04:55.176Z,1.56
2023-02-04T08:07:28.148Z,1.56
2023-02-04T08:10:01.025Z,1.59
2023-02-04T08:12:34.927Z,1.59
2023-02-04T08:15:09.379Z,1.57
2023-02-04T08:17:43.065Z,1.56
2023-02-04T08:20:17.938Z,1.53
2023-02-04T08:22:50.987Z,1.52
2023-02-04T08:25:23.876Z,1.51
2023-02-04T08:27:57.483Z,1.52
2023-02-04T08:30:32.215Z,1.55
2023-02-04T08:33:05.929Z,1.61
2023-02-04T08:35:38.824Z,1.68
2023-02-04T08:38:11.631Z,1.73
2023-02-04T08:40:44.972Z,1.79
2023-02-04T08:43:17.748Z,1.88
2023-02-04T08:45:51.403Z,1.98
2023-02-04T08:48:24.201Z,2.09
2023-02-04T08:50:57.516Z,2.12
2023-02-04T08:53:30.731Z,2.12
2023-02-04T08:56:03.779Z,2.12
2023-02-04T08:58:38.009Z,2.19
2023-02-04T09:01:11.633Z,2.29
2023-02-04T09:03:45.149Z,2.38
2023-02-04T09:06:18.038Z,2.41
2023-02-04T09:08:50.879Z,2.50
2023-02-04T09:11:24.148Z,2.59
2023-02-04T09:13:58.565Z,2.68
2023-02-04T09:16:31.850Z,2.71
2023-02-04T09:19:06.612Z,2.77
2023-02-04T09:21:39.685Z,2.85
2023-02-04T09:24:12.678Z,2.82
2023-02-04T09:26:45.756Z,2.78
2023-02-04T09:29:19.004Z,2.70
2023-02-04T09:31:51.947Z,2.65
2023-02-04T09:34:25.481Z,2.59
2023-02-04T09:36:58.249Z,2.52
2023-02-04T09:39:31.676Z,2.42
2023-02-04T09:42:05.108Z,2.38
2023-02-04T09:44:38.573Z,2.38
2023-02-04T09:47:13.473Z,2.41
2023-02-04T09:49:47.692Z,2.45
2023-02-04T09:52:20.925Z,2.48
2023-02-04T09:54:53.916Z,2.49
2023-02-04T09:57:26.675Z,2.46
2023-02-04T09:59:59.309Z,2.45
2023-02-04T10:02:32.460Z,2.44
2023-02-04T10:05:05.607Z,2.44
2023-02-04T10:07:38.684Z,2.46
2023-02-04T10:10:25.438Z,2.49
2023-02-04T10:13:01.256Z,2.48
2023-02-04T10:15:35.655Z,2.49
2023-02-04T10:18:10.441Z,2.49
2023-02-04T10:20:43.413Z,2.47
2023-02-04T10:23:16.878Z,2.42
2023-02-04T10:25:49.707Z,2.38
2023-02-04T10:28:22.750Z,2.35
2023-02-04T10:30:55.784Z,2.34
2023-02-04T10:33:29.113Z,2.34
2023-02-04T10:36:02.157Z,2.35
2023-02-04T10:38:36.002Z,2.37
2023-02-04T10:41:10.851Z,2.34
2023-02-04T10:43:44.058Z,2.34
2023-02-04T10:46:20.586Z,2.34
2023-02-04T10:48:54.132Z,2.37
2023-02-04T10:51:27.190Z,2.38
2023-02-04T10:54:18.441Z,2.39
2023-02-04T10:56:52.429Z,2.37
2023-02-04T10:59:28.241Z,2.30
2023-02-04T11:02:04.166Z,2.29
2023-02-04T11:04:38.741Z,2.31
2023-02-04T11:07:14.434Z,2.33
2023-02-04T11:09:48.778Z,2.37
2023-02-04T11:12:46.722Z,2.42
2023-02-04T11:15:50.796Z,2.35
2023-02-04T11:18:30.207Z,2.24
2023-02-04T11:21:03.395Z,2.21
2023-02-04T11:23:37.580Z,2.17
2023-02-04T11:26:22.451Z,2.17
2023-02-04T11:29:06.056Z,2.19
2023-02-04T11:31:59.040Z,2.19
2023-02-04T11:34:33.959Z,2.17
2023-02-04T11:37:20.128Z,2.14
2023-02-04T11:39:53.197Z,2.13
2023-02-04T11:42:42.594Z,2.12
2023-02-04T11:45:22.743Z,2.16
2023-02-04T11:47:58.842Z,2.20
2023-02-04T11:50:35.377Z,2.23
2023-02-04T11:53:11.497Z,2.25
2023-02-04T11:55:48.490Z,2.26
2023-02-04T11:58:24.548Z,2.31
2023-02-04T12:00:57.530Z,2.33
2023-02-04T12:03:36.844Z,2.30
2023-02-04T12:06:09.686Z,2.23
2023-02-04T12:08:43.204Z,2.13
2023-02-04T12:11:29.937Z,2.11
2023-02-04T12:14:14.077Z,2.18
2023-02-04T12:16:52.387Z,2.26
2023-02-04T12:19:27.583Z,2.36
2023-02-04T12:21:59.727Z,2.42
2023-02-04T12:24:32.687Z,2.43
2023-02-04T12:27:05.716Z,2.38
2023-02-04T12:29:39.123Z,2.32
2023-02-04T12:32:11.935Z,2.31
2023-02-04T12:34:45.407Z,2.31
2023-02-04T12:37:18.368Z,2.33
2023-02-04T12:39:51.130Z,2.28
2023-02-04T12:42:24.238Z,2.20
2023-02-04T12:44:57.080Z,2.10
2023-02-04T12:47:29.922Z,2.01
2023-02-04T12:50:03.029Z,1.93
2023-02-04T12:52:37.205Z,1.86
2023-02-04T12:55:10.915Z,1.81
2023-02-04T12:57:43.917Z,1.75
2023-02-04T13:00:19.288Z,1.69
2023-02-04T13:02:52.155Z,1.63
2023-02-04T13:05:25.023Z,1.60
2023-02-04T13:07:58.953Z,1.56
2023-02-04T13:10:31.907Z,1.53
2023-02-04T13:13:05.234Z,1.54
2023-02-04T13:15:39.390Z,1.60
2023-02-04T13:18:12.227Z,1.65
2023-02-04T13:20:46.319Z,1.69
2023-02-04T13:23:19.127Z,1.69
2023-02-04T13:25:52.186Z,1.66
2023-02-04T13:28:25.106Z,1.62
2023-02-04T13:30:58.100Z,1.56
2023-02-04T13:33:31.252Z,1.50
2023-02-04T13:36:04.756Z,1.49
2023-02-04T13:38:37.722Z,1.49
2023-02-04T13:41:10.861Z,1.49
2023-02-04T13:43:44.029Z,1.43
2023-02-04T13:46:17.014Z,1.38
2023-02-04T13:48:51.024Z,1.36
2023-02-04T13:51:24.152Z,1.30
2023-02-04T13:53:57.474Z,1.26
2023-02-04T13:56:32.348Z,1.23
2023-02-04T13:59:05.832Z,1.19
2023-02-04T14:01:39.406Z,1.13
2023-02-04T14:04:12.084Z,1.10
2023-02-04T14:06:44.984Z,1.07
2023-02-04T14:09:18.144Z,1.02
2023-02-04T14:11:52.045Z,0.96
2023-02-04T14:14:24.885Z,0.88
2023-02-04T14:16:58.486Z,0.79
2023-02-04T14:19:31.498Z,0.73
2023-02-04T14:22:04.491Z,0.74
2023-02-04T14:24:39.016Z,0.72
2023-02-04T14:27:12.485Z,0.70
2023-02-04T14:29:45.352Z,0.69
2023-02-04T14:32:18.753Z,0.66
2023-02-04T14:34:52.607Z,0.61
2023-02-04T14:37:27.408Z,0.64
2023-02-04T14:40:01.395Z,0.65
2023-02-04T14:42:34.511Z,0.65
2023-02-04T14:45:12.596Z,0.66
2023-02-04T14:47:46.539Z,0.68
2023-02-04T14:50:20.104Z,0.66
2023-02-04T14:52:52.935Z,0.64
2023-02-04T14:55:27.477Z,0.63
2023-02-04T14:58:00.443Z,0.60
2023-02-04T15:00:34.083Z,0.56
2023-02-04T15:03:07.533Z,0.53
2023-02-04T15:05:41.309Z,0.48
2023-02-04T15:08:14.207Z,0.42
2023-02-04T15:10:47.696Z,0.40
2023-02-04T15:13:21.297Z,0.39
2023-02-04T15:15:54.448Z,0.38
2023-02-04T15:18:27.525Z,0.39
2023-02-04T15:21:02.100Z,0.38
2023-02-04T15:23:35.759Z,0.44
2023-02-04T15:26:08.583Z,0.45
2023-02-04T15:28:42.586Z,0.45
2023-02-04T15:31:15.662Z,0.47
2023-02-04T15:33:49.376Z,0.51
2023-02-04T15:36:22.439Z,0.52
2023-02-04T15:38:55.221Z,0.48
2023-02-04T15:41:27.853Z,0.45
2023-02-04T15:44:00.744Z,0.43
2023-02-04T15:46:36.437Z,0.42
2023-02-04T15:49:09.669Z,0.45
2023-02-04T15:51:42.959Z,0.44
2023-02-04T15:54:16.668Z,0.43
2023-02-04T15:56:49.729Z,0.40
2023-02-04T15:59:23.616Z,0.34
2023-02-04T16:01:57.210Z,0.33
2023-02-04T16:04:30.264Z,0.32
2023-02-04T16:07:04.944Z,0.33
2023-02-04T16:09:38.669Z,0.31
2023-02-04T16:12:11.939Z,0.28
2023-02-04T16:14:44.895Z,0.26
2023-02-04T16:17:19.154Z,0.21
2023-02-04T16:19:52.707Z,0.19
2023-02-04T16:22:26.081Z,0.21
2023-02-04T16:24:59.325Z,0.22
2023-02-04T16:27:32.194Z,0.26
2023-02-04T16:30:06.563Z,0.25
2023-02-04T16:32:39.416Z,0.24
2023-02-04T16:35:12.286Z,0.27
2023-02-04T16:37:45.771Z,0.28
2023-02-04T16:40:19.713Z,0.27
2023-02-04T16:42:52.821Z,0.24
2023-02-04T16:45:25.680Z,0.22
2023-02-04T16:47:58.594Z,0.20
2023-02-04T16:50:32.806Z,0.16
2023-02-04T16:53:06.120Z,0.14
2023-02-04T16:55:39.925Z,0.11
2023-02-04T16:58:13.833Z,0.14
2023-02-04T17:00:46.887Z,0.15
2023-02-04T17:03:20.398Z,0.12
2023-02-04T17:05:53.121Z,0.06
2023-02-04T17:08:26.401Z,-0.04
2023-02-04T17:11:17.234Z,-0.09
2023-02-04T17:13:50.101Z,-0.11
2023-02-04T17:16:23.640Z,-0.13
2023-02-04T17:18:57.241Z,-0.11
2023-02-04T17:21:31.681Z,-0.09
2023-02-04T17:24:04.627Z,-0.10
2023-02-04T17:26:39.880Z,-0.12
2023-02-04T17:29:17.567Z,-0.12
2023-02-04T17:31:50.536Z,-0.15
2023-02-04T17:34:23.996Z,-0.17
2023-02-04T17:36:57.830Z,-0.15
2023-02-04T17:39:32.373Z,-0.20
2023-02-04T17:42:05.516Z,-0.22
2023-02-04T17:44:38.562Z,-0.28
2023-02-04T17:47:11.671Z,-0.27
2023-02-04T17:49:44.636Z,-0.28
2023-02-04T17:52:17.417Z,-0.25
2023-02-04T17:54:50.726Z,-0.25
2023-02-04T17:57:23.948Z,-0.25
2023-02-04T17:59:57.206Z,-0.27
2023-02-04T18:02:32.298Z,-0.31
2023-02-04T18:05:16.078Z,-0.34
2023-02-04T18:08:00.746Z,-0.34
2023-02-04T18:10:35.338Z,-0.35
2023-02-04T18:13:26.641Z,-0.36
2023-02-04T18:16:03.149Z,-0.40
2023-02-04T18:18:41.198Z,-0.45
2023-02-04T18:21:34.332Z,-0.50
2023-02-04T18:24:30.628Z,-0.52
2023-02-04T18:27:19.465Z,-0.56
2023-02-04T18:29:59.318Z,-0.58
2023-02-04T18:32:41.075Z,-0.56
2023-02-04T18:35:40.301Z,-0.51
2023-02-04T18:38:37.712Z,-0.46
2023-02-04T18:41:23.712Z,-0.45
2023-02-04T18:44:06.289Z,-0.41
2023-02-04T18:46:43.195Z,-0.40
2023-02-04T18:49:29.347Z,-0.38
2023-02-04T18:52:06.573Z,-0.41
2023-02-04T18:54:42.488Z,-0.43
2023-02-04T18:57:24.434Z,-0.43
2023-02-04T19:00:18.444Z,-0.42
2023-02-04T19:03:00.862Z,-0.41
2023-02-04T19:05:40.362Z,-0.34
2023-02-04T19:08:29.388Z,-0.29
2023-02-04T19:11:02.739Z,-0.24
2023-02-04T19:13:44.531Z,-0.20
2023-02-04T19:16:36.662Z,-0.19
2023-02-04T19:19:42.397Z,-0.22
2023-02-04T19:22:21.836Z,-0.22
2023-02-04T19:25:20.708Z,-0.23
2023-02-04T19:28:00.284Z,-0.23
2023-02-04T19:30:38.269Z,-0.25
2023-02-04T19:33:33.209Z,-0.28
2023-02-04T19:36:40.221Z,-0.32
2023-02-04T19:39:34.109Z,-0.38
2023-02-04T19:42:26.983Z,-0.43
2023-02-04T19:45:03.324Z,-0.46
2023-02-04T19:47:45.571Z,-0.45
2023-02-04T19:50:36.907Z,-0.49
2023-02-04T19:53:27.096Z,-0.57
2023-02-04T19:55:59.973Z,-0.63
2023-02-04T19:58:43.691Z,-0.69
2023-02-04T20:01:21.212Z,-0.75
2023-02-04T20:03:54.072Z,-0.76
2023-02-04T20:06:36.496Z,-0.78
2023-02-04T20:09:29.707Z,-0.79
2023-02-04T20:12:06.643Z,-0.80
2023-02-04T20:14:53.949Z,-0.81
2023-02-04T20:17:41.809Z,-0.81
2023-02-04T20:20:32.820Z,-0.80
2023-02-04T20:23:30.608Z,-0.78
2023-02-04T20:26:03.827Z,-0.76
2023-02-04T20:28:42.605Z,-0.71
2023-02-04T20:31:26.071Z,-0.70
2023-02-04T20:34:01.119Z,-0.70
2023-02-04T20:36:39.387Z,-0.70
2023-02-04T20:39:36.448Z,-0.69
2023-02-04T20:42:25.659Z,-0.63
2023-02-04T20:45:20.078Z,-0.59
2023-02-04T20:47:57.794Z,-0.56
2023-02-04T20:50:52.296Z,-0.56
2023-02-04T20:53:57.390Z,-0.58
2023-02-04T20:56:39.545Z,-0.58
2023-02-04T20:59:31.116Z,-0.57
2023-02-04T21:02:05.228Z,-0.58
2023-02-04T21:04:47.206Z,-0.52
2023-02-04T21:07:23.190Z,-0.50
2023-02-04T21:09:58.121Z,-0.46
2023-02-04T21:12:32.264Z,-0.43
2023-02-04T21:15:05.007Z,-0.44
2023-02-04T21:17:37.891Z,-0.43
2023-02-04T21:20:12.230Z,-0.41
2023-02-04T21:22:45.757Z,-0.42
2023-02-04T21:25:18.956Z,-0.45
2023-02-04T21:27:52.309Z,-0.46
2023-02-04T21:30:27.589Z,-0.46
2023-02-04T21:33:02.157Z,-0.48
2023-02-04T21:35:34.486Z,-0.50
2023-02-04T21:38:08.447Z,-0.52
2023-02-04T21:40:41.759Z,-0.57
2023-02-04T21:43:14.954Z,-0.60
2023-02-04T21:45:47.949Z,-0.63
2023-02-04T21:48:20.657Z,-0.68
2023-02-04T21:50:54.791Z,-0.70
2023-02-04T21:53:27.736Z,-0.70
2023-02-04T21:56:00.817Z,-0.75
2023-02-04T21:58:34.174Z,-0.75
2023-02-04T22:01:07.550Z,-0.77
2023-02-04T22:03:40.433Z,-0.75
2023-02-04T22:06:13.531Z,-0.73
2023-02-04T22:08:46.638Z,-0.69
2023-02-04T22:11:20.010Z,-0.68
2023-02-04T22:13:53.412Z,-0.67
2023-02-04T22:16:27.052Z,-0.67
2023-02-04T22:19:00.473Z,-0.65
2023-02-04T22:21:35.147Z,-0.66
2023-02-04T22:24:08.430Z,-0.68
2023-02-04T22:26:41.474Z,-0.66
2023-02-04T22:29:15.113Z,-0.68
2023-02-04T22:31:47.855Z,-0.74
2023-02-04T22:34:20.943Z,-0.80
2023-02-04T22:36:55.818Z,-0.87
2023-02-04T22:39:28.738Z,-0.93
2023-02-04T22:42:02.222Z,-1.00
2023-02-04T22:44:35.098Z,-1.07
2023-02-04T22:47:08.555Z,-1.15
2023-02-04T22:49:44.358Z,-1.26
2023-02-04T22:52:17.858Z,-1.30
2023-02-04T22:54:50.722Z,-1.35
2023-02-04T22:57:23.979Z,-1.37
2023-02-04T22:59:56.785Z,-1.37
2023-02-04T23:02:30.039Z,-1.35
2023-02-04T23:05:03.084Z,-1.39
2023-02-04T23:07:37.351Z,-1.41
2023-02-04T23:10:10.884Z,-1.38
2023-02-04T23:12:44.439Z,-1.33
2023-02-04T23:15:17.603Z,-1.28
2023-02-04T23:17:52.641Z,-1.28
2023-02-04T23:20:25.485Z,-1.24
2023-02-04T23:22:58.715Z,-1.21
2023-02-04T23:25:32.021Z,-1.19
2023-02-04T23:28:06.155Z,-1.18
2023-02-04T23:30:39.267Z,-1.16
2023-02-04T23:33:12.078Z,-1.13
2023-02-04T23:35:44.937Z,-1.10
2023-02-04T23:38:17.885Z,-1.12
2023-02-04T23:40:51.452Z,-1.15
2023-02-04T23:43:24.352Z,-1.17
2023-02-04T23:45:57.553Z,-1.14
2023-02-04T23:48:31.570Z,-1.11
2023-02-04T23:51:06.604Z,-1.07
2023-02-04T23:53:39.400Z,-1.08
2023-02-04T23:56:12.135Z,-1.08
2023-02-04T23:58:44.957Z,-1.10
